createdAt,value
2022-10-05T00:00:26.950Z,2.58
2022-10-05T00:01:01.927Z,2.55
2022-10-05T00:01:36.514Z,2.70
2022-10-05T00:02:17.318Z,2.10
2022-10-05T00:03:22.784Z,2.47
2022-10-05T00:04:06.443Z,2.30
2022-10-05T00:04:38.942Z,3.03
2022-10-05T00:05:24.209Z,2.67
2022-10-05T00:05:57.384Z,2.50
2022-10-05T00:06:30.490Z,2.50
2022-10-05T00:07:17.267Z,2.67
2022-10-05T00:07:49.342Z,2.60
2022-10-05T00:08:25.581Z,2.80
2022-10-05T00:08:57.629Z,2.80
2022-10-05T00:09:31.872Z,3.10
2022-10-05T00:10:13.839Z,3.20
2022-10-05T00:10:46.729Z,2.58
2022-10-05T00:11:18.722Z,2.65
2022-10-05T00:11:51.575Z,3.40
2022-10-05T00:12:25.117Z,4.00
2022-10-05T00:12:57.012Z,4.15
2022-10-05T00:13:30.852Z,4.47
2022-10-05T00:14:14.706Z,5.35
2022-10-05T00:14:49.479Z,4.90
2022-10-05T00:15:22.472Z,5.50
2022-10-05T00:16:09.602Z,7.78
2022-10-05T00:16:41.661Z,8.52
2022-10-05T00:17:23.087Z,8.27
2022-10-05T00:17:55.714Z,7.85
2022-10-05T00:18:27.545Z,8.85
2022-10-05T00:18:59.827Z,8.55
2022-10-05T00:19:35.593Z,9.55
2022-10-05T00:20:23.513Z,9.45
2022-10-05T00:20:55.371Z,8.05
2022-10-05T00:21:28.973Z,6.75
2022-10-05T00:22:17.226Z,4.15
2022-10-05T00:23:01.090Z,3.53
2022-10-05T00:23:32.922Z,3.15
2022-10-05T00:24:10.367Z,3.10
2022-10-05T00:24:42.478Z,2.53
2022-10-05T00:25:19.043Z,2.90
2022-10-05T00:25:51.160Z,2.83
2022-10-05T00:26:25.367Z,3.20
2022-10-05T00:27:01.545Z,2.60
2022-10-05T00:27:37.529Z,2.42
2022-10-05T00:28:17.780Z,2.22
2022-10-05T00:28:50.333Z,2.65
2022-10-05T00:29:23.343Z,2.50
2022-10-05T00:29:59.743Z,2.78
2022-10-05T00:30:33.912Z,2.20
2022-10-05T00:31:16.670Z,2.33
2022-10-05T00:31:50.067Z,2.30
2022-10-05T00:32:21.901Z,2.20
2022-10-05T00:32:58.688Z,2.47
2022-10-05T00:33:32.005Z,1.50
2022-10-05T00:34:04.257Z,2.28
2022-10-05T00:34:36.445Z,2.10
2022-10-05T00:35:09.601Z,1.92
2022-10-05T00:35:41.481Z,1.92
2022-10-05T00:36:14.447Z,2.00
2022-10-05T00:36:46.616Z,1.80
2022-10-05T00:37:18.670Z,2.12
2022-10-05T00:37:55.356Z,2.10
2022-10-05T00:38:28.440Z,1.90
2022-10-05T00:39:02.021Z,2.08
2022-10-05T00:39:36.146Z,1.87
2022-10-05T00:40:37.560Z,1.87
2022-10-05T00:41:22.362Z,1.62
2022-10-05T00:42:13.971Z,1.83
2022-10-05T00:43:05.532Z,1.80
2022-10-05T00:44:04.203Z,2.00
2022-10-05T00:44:36.299Z,1.98
2022-10-05T00:45:13.822Z,1.65
2022-10-05T00:46:07.860Z,2.00
2022-10-05T00:47:12.618Z,2.30
2022-10-05T00:48:02.409Z,2.05
2022-10-05T00:48:40.122Z,2.05
2022-10-05T00:49:33.681Z,2.30
2022-10-05T00:50:21.144Z,3.55
2022-10-05T00:50:52.999Z,3.08
2022-10-05T00:51:28.818Z,3.70
2022-10-05T00:52:25.935Z,4.28
2022-10-05T00:53:24.515Z,3.95
2022-10-05T00:54:02.931Z,3.45
2022-10-05T00:54:47.388Z,4.37
2022-10-05T00:55:44.009Z,4.97
2022-10-05T00:56:51.740Z,4.55
2022-10-05T00:57:35.297Z,4.80
2022-10-05T00:58:15.817Z,4.90
2022-10-05T00:59:47.502Z,5.57
2022-10-05T01:00:25.294Z,3.65
2022-10-05T01:01:11.818Z,3.12
2022-10-05T01:02:16.414Z,2.12
2022-10-05T01:03:22.790Z,2.20
2022-10-05T01:04:19.448Z,1.90
2022-10-05T01:05:07.805Z,1.60
2022-10-05T01:06:12.742Z,1.90
2022-10-05T01:07:12.265Z,1.90
2022-10-05T01:07:49.973Z,1.73
2022-10-05T01:08:50.825Z,1.62
2022-10-05T01:09:32.927Z,1.73
2022-10-05T01:10:10.776Z,1.60
2022-10-05T01:10:48.361Z,1.55
2022-10-05T01:11:29.225Z,1.83
2022-10-05T01:13:11.717Z,1.52
2022-10-05T01:14:05.683Z,2.58
2022-10-05T01:15:05.202Z,1.50
2022-10-05T01:15:45.121Z,1.75
2022-10-05T01:16:30.957Z,2.35
2022-10-05T01:17:20.424Z,1.87
2022-10-05T01:18:11.028Z,1.77
2022-10-05T01:19:16.616Z,1.73
2022-10-05T01:20:15.819Z,2.00
2022-10-05T01:20:56.513Z,1.50
2022-10-05T01:21:33.325Z,1.83
2022-10-05T01:22:30.058Z,1.80
2022-10-05T01:23:23.645Z,2.08
2022-10-05T01:24:07.500Z,1.83
2022-10-05T01:25:26.956Z,1.60
2022-10-05T01:26:23.518Z,1.67
2022-10-05T01:27:19.052Z,1.75
2022-10-05T01:28:13.053Z,1.70
2022-10-05T01:28:54.057Z,1.70
2022-10-05T01:29:39.021Z,1.90
2022-10-05T01:30:13.532Z,1.80
2022-10-05T01:31:06.391Z,1.83
2022-10-05T01:31:59.416Z,1.87
2022-10-05T01:33:00.995Z,1.67
2022-10-05T01:33:44.035Z,1.40
2022-10-05T01:34:25.529Z,1.55
2022-10-05T01:35:24.589Z,1.83
2022-10-05T01:36:15.068Z,2.15
2022-10-05T01:36:58.713Z,1.45
2022-10-05T01:37:43.918Z,1.52
2022-10-05T01:38:35.965Z,1.87
2022-10-05T01:39:23.808Z,1.70
2022-10-05T01:40:31.345Z,2.20
2022-10-05T01:41:19.682Z,1.80
2022-10-05T01:41:57.378Z,2.78
2022-10-05T01:43:07.623Z,2.10
2022-10-05T01:44:02.397Z,2.03
2022-10-05T01:44:48.986Z,1.95
2022-10-05T01:45:44.454Z,2.25
2022-10-05T01:46:34.500Z,2.10
2022-10-05T01:47:13.125Z,2.47
2022-10-05T01:47:50.124Z,1.75
2022-10-05T01:48:46.633Z,2.05
2022-10-05T01:49:38.744Z,1.95
2022-10-05T01:50:28.751Z,1.77
2022-10-05T01:51:10.400Z,2.00
2022-10-05T01:51:48.066Z,1.67
2022-10-05T01:52:53.359Z,1.65
2022-10-05T01:53:35.874Z,1.83
2022-10-05T01:54:29.276Z,1.60
2022-10-05T01:55:33.459Z,1.75
2022-10-05T01:56:24.979Z,1.62
2022-10-05T01:57:05.756Z,2.10
2022-10-05T01:57:44.086Z,2.37
2022-10-05T01:58:37.443Z,1.85
2022-10-05T01:59:33.218Z,1.90
2022-10-05T02:00:12.383Z,1.83
2022-10-05T02:01:06.362Z,1.98
2022-10-05T02:01:41.371Z,2.08
2022-10-05T02:02:20.790Z,1.60
2022-10-05T02:03:14.114Z,1.58
2022-10-05T02:03:53.244Z,1.80
2022-10-05T02:05:02.816Z,1.75
2022-10-05T02:05:54.447Z,1.52
2022-10-05T02:06:32.520Z,1.58
2022-10-05T02:07:13.865Z,2.12
2022-10-05T02:07:52.684Z,1.52
2022-10-05T02:08:32.093Z,1.80
2022-10-05T02:09:26.695Z,1.70
2022-10-05T02:10:07.896Z,1.60
2022-10-05T02:10:52.344Z,1.55
2022-10-05T02:11:24.272Z,1.60
2022-10-05T02:12:05.357Z,1.77
2022-10-05T02:12:38.959Z,1.70
2022-10-05T02:13:21.038Z,1.50
2022-10-05T02:14:01.246Z,1.62
2022-10-05T02:14:41.328Z,1.50
2022-10-05T02:15:24.193Z,1.65
2022-10-05T02:16:03.403Z,1.95
2022-10-05T02:16:41.216Z,1.90
2022-10-05T02:17:35.310Z,1.80
2022-10-05T02:18:14.394Z,1.70
2022-10-05T02:19:21.554Z,1.45
2022-10-05T02:20:06.216Z,1.70
2022-10-05T02:20:42.352Z,1.87
2022-10-05T02:21:14.939Z,1.90
2022-10-05T02:22:10.592Z,1.45
2022-10-05T02:22:56.096Z,1.58
2022-10-05T02:23:33.629Z,1.75
2022-10-05T02:24:11.850Z,1.58
2022-10-05T02:24:58.771Z,2.12
2022-10-05T02:25:35.431Z,1.70
2022-10-05T02:26:11.277Z,1.60
2022-10-05T02:26:43.614Z,1.58
2022-10-05T02:27:23.294Z,1.40
2022-10-05T02:28:14.187Z,1.60
2022-10-05T02:28:56.342Z,1.85
2022-10-05T02:29:32.291Z,1.60
2022-10-05T02:30:10.432Z,1.65
2022-10-05T02:30:51.511Z,1.60
2022-10-05T02:31:40.465Z,1.30
2022-10-05T02:32:21.717Z,1.65
2022-10-05T02:33:03.112Z,1.60
2022-10-05T02:33:37.373Z,1.77
2022-10-05T02:34:26.937Z,1.62
2022-10-05T02:35:04.328Z,1.67
2022-10-05T02:35:37.063Z,1.42
2022-10-05T02:36:32.915Z,1.50
2022-10-05T02:37:33.038Z,1.52
2022-10-05T02:38:14.569Z,1.70
2022-10-05T02:39:11.323Z,1.90
2022-10-05T02:39:58.328Z,1.60
2022-10-05T02:40:56.184Z,1.37
2022-10-05T02:41:47.115Z,1.70
2022-10-05T02:42:24.802Z,1.80
2022-10-05T02:43:28.068Z,1.62
2022-10-05T02:44:18.618Z,1.67
2022-10-05T02:45:11.453Z,1.42
2022-10-05T02:46:09.671Z,1.35
2022-10-05T02:47:18.517Z,1.67
2022-10-05T02:47:59.225Z,1.58
2022-10-05T02:48:42.800Z,1.60
2022-10-05T02:49:23.302Z,1.90
2022-10-05T02:50:08.398Z,1.52
2022-10-05T02:51:09.733Z,1.60
2022-10-05T02:53:00.641Z,2.08
2022-10-05T02:54:01.018Z,2.50
2022-10-05T02:54:44.856Z,2.08
2022-10-05T02:55:38.622Z,2.53
2022-10-05T02:56:16.640Z,2.40
2022-10-05T02:57:31.634Z,2.35
2022-10-05T02:58:23.938Z,2.17
2022-10-05T02:59:15.053Z,1.92
2022-10-05T03:00:02.650Z,2.75
2022-10-05T03:00:42.632Z,2.05
2022-10-05T03:01:28.088Z,2.25
2022-10-05T03:02:12.535Z,2.00
2022-10-05T03:02:52.563Z,1.98
2022-10-05T03:03:39.728Z,2.05
2022-10-05T03:04:14.603Z,1.70
2022-10-05T03:04:58.062Z,2.00
2022-10-05T03:05:37.598Z,1.90
2022-10-05T03:06:18.119Z,2.10
2022-10-05T03:07:12.017Z,2.78
2022-10-05T03:08:26.038Z,2.05
2022-10-05T03:09:05.889Z,1.70
2022-10-05T03:10:01.656Z,1.60
2022-10-05T03:10:52.592Z,1.90
2022-10-05T03:11:46.869Z,2.12
2022-10-05T03:12:36.337Z,1.55
2022-10-05T03:13:45.520Z,1.85
2022-10-05T03:14:30.325Z,1.70
2022-10-05T03:15:17.206Z,1.62
2022-10-05T03:16:21.917Z,1.60
2022-10-05T03:17:15.755Z,1.85
2022-10-05T03:18:01.682Z,2.17
2022-10-05T03:18:42.860Z,1.42
2022-10-05T03:19:38.884Z,1.95
2022-10-05T03:20:26.708Z,1.73
2022-10-05T03:21:22.718Z,1.77
2022-10-05T03:22:00.627Z,1.83
2022-10-05T03:23:17.203Z,2.33
2022-10-05T03:24:22.966Z,2.00
2022-10-05T03:25:03.444Z,2.08
2022-10-05T03:26:20.942Z,2.00
2022-10-05T03:26:52.850Z,2.30
2022-10-05T03:27:42.026Z,1.92
2022-10-05T03:28:29.204Z,1.75
2022-10-05T03:29:39.520Z,1.80
2022-10-05T03:30:21.768Z,2.00
2022-10-05T03:31:20.732Z,1.90
2022-10-05T03:32:18.499Z,1.80
2022-10-05T03:32:50.648Z,1.67
2022-10-05T03:33:34.350Z,1.98
2022-10-05T03:34:15.194Z,2.05
2022-10-05T03:35:04.117Z,2.05
2022-10-05T03:35:49.207Z,1.60
2022-10-05T03:36:43.038Z,1.67
2022-10-05T03:37:49.595Z,1.75
2022-10-05T03:38:43.606Z,1.87
2022-10-05T03:39:28.136Z,1.77
2022-10-05T03:40:16.018Z,1.70
2022-10-05T03:41:01.557Z,1.77
2022-10-05T03:41:50.127Z,1.65
2022-10-05T03:42:38.959Z,1.92
2022-10-05T03:43:40.017Z,2.42
2022-10-05T03:44:21.153Z,1.90
2022-10-05T03:45:28.456Z,1.98
2022-10-05T03:46:12.429Z,1.80
2022-10-05T03:47:14.492Z,2.00
2022-10-05T03:47:50.549Z,2.60
2022-10-05T03:48:28.585Z,2.83
2022-10-05T03:49:00.654Z,2.60
2022-10-05T03:49:45.461Z,2.45
2022-10-05T03:50:51.771Z,2.87
2022-10-05T03:51:29.819Z,3.17
2022-10-05T03:52:28.081Z,2.25
2022-10-05T03:53:25.386Z,2.65
2022-10-05T03:54:03.825Z,2.33
2022-10-05T03:54:39.481Z,2.15
2022-10-05T03:55:17.567Z,2.47
2022-10-05T03:55:59.693Z,1.98
2022-10-05T03:56:45.412Z,1.90
2022-10-05T03:57:24.697Z,2.30
2022-10-05T03:58:02.962Z,2.33
2022-10-05T03:58:57.913Z,2.50
2022-10-05T03:59:37.981Z,2.20
2022-10-05T04:00:17.920Z,2.20
2022-10-05T04:01:58.852Z,2.58
2022-10-05T04:02:36.834Z,2.50
2022-10-05T04:03:12.290Z,2.47
2022-10-05T04:03:49.811Z,2.30
2022-10-05T04:04:37.390Z,2.15
2022-10-05T04:05:09.241Z,1.90
2022-10-05T04:05:52.111Z,2.00
2022-10-05T04:06:27.990Z,2.30
2022-10-05T04:07:01.569Z,2.17
2022-10-05T04:07:56.755Z,2.25
2022-10-05T04:08:45.389Z,1.83
2022-10-05T04:09:32.568Z,1.83
2022-10-05T04:10:14.600Z,1.90
2022-10-05T04:10:48.816Z,1.70
2022-10-05T04:11:30.515Z,1.60
2022-10-05T04:12:23.970Z,1.90
2022-10-05T04:13:09.983Z,3.25
2022-10-05T04:14:18.991Z,2.00
2022-10-05T04:14:57.282Z,1.75
2022-10-05T04:15:43.083Z,1.80
2022-10-05T04:16:40.792Z,1.80
2022-10-05T04:17:21.914Z,2.00
2022-10-05T04:18:09.834Z,1.80
2022-10-05T04:19:32.522Z,1.75
2022-10-05T04:20:14.868Z,1.90
2022-10-05T04:20:53.466Z,2.08
2022-10-05T04:21:32.447Z,2.20
2022-10-05T04:22:12.134Z,1.90
2022-10-05T04:23:12.885Z,2.40
2022-10-05T04:23:55.224Z,2.12
2022-10-05T04:24:49.389Z,1.77
2022-10-05T04:25:42.574Z,2.10
2022-10-05T04:26:22.832Z,1.67
2022-10-05T04:26:59.903Z,2.00
2022-10-05T04:27:39.339Z,1.83
2022-10-05T04:28:43.637Z,1.67
2022-10-05T04:29:45.927Z,2.03
2022-10-05T04:30:19.760Z,2.00
2022-10-05T04:30:54.185Z,1.80
2022-10-05T04:31:38.328Z,1.90
2022-10-05T04:32:31.281Z,2.22
2022-10-05T04:33:10.382Z,1.70
2022-10-05T04:33:47.084Z,1.83
2022-10-05T04:34:36.945Z,1.80
2022-10-05T04:35:21.912Z,1.85
2022-10-05T04:36:14.908Z,2.00
2022-10-05T04:37:05.219Z,2.40
2022-10-05T04:37:58.241Z,1.70
2022-10-05T04:38:41.942Z,1.98
2022-10-05T04:39:31.219Z,1.95
2022-10-05T04:40:20.836Z,2.10
2022-10-05T04:41:37.105Z,2.55
2022-10-05T04:42:36.016Z,2.60
2022-10-05T04:43:21.410Z,2.10
2022-10-05T04:44:05.006Z,2.35
2022-10-05T04:45:04.670Z,2.83
2022-10-05T04:46:02.808Z,2.50
2022-10-05T04:47:05.807Z,2.55
2022-10-05T04:48:16.639Z,1.90
2022-10-05T04:49:19.469Z,2.22
2022-10-05T04:50:07.802Z,2.45
2022-10-05T04:51:01.034Z,2.30
2022-10-05T04:51:56.016Z,2.70
2022-10-05T04:52:48.041Z,2.37
2022-10-05T04:53:39.363Z,2.70
2022-10-05T04:54:22.681Z,2.50
2022-10-05T04:55:36.060Z,2.30
2022-10-05T04:56:15.557Z,4.10
2022-10-05T04:56:55.535Z,3.00
2022-10-05T04:57:50.797Z,3.05
2022-10-05T04:58:55.083Z,3.25
2022-10-05T04:59:29.752Z,3.10
2022-10-05T05:00:05.862Z,3.53
2022-10-05T05:00:59.877Z,3.17
2022-10-05T05:01:52.757Z,3.45
2022-10-05T05:03:03.714Z,3.50
2022-10-05T05:04:05.999Z,3.25
2022-10-05T05:04:51.784Z,3.10
2022-10-05T05:05:58.627Z,2.83
2022-10-05T05:06:38.495Z,3.50
2022-10-05T05:07:55.034Z,2.78
2022-10-05T05:08:49.377Z,3.30
2022-10-05T05:09:42.390Z,2.90
2022-10-05T05:10:32.632Z,3.30
2022-10-05T05:11:43.894Z,2.90
2022-10-05T05:12:27.627Z,3.17
2022-10-05T05:13:09.569Z,3.60
2022-10-05T05:13:58.543Z,4.00
2022-10-05T05:14:52.269Z,3.70
2022-10-05T05:15:51.530Z,3.83
2022-10-05T05:16:38.323Z,4.43
2022-10-05T05:17:39.626Z,4.55
2022-10-05T05:18:49.010Z,4.60
2022-10-05T05:20:04.809Z,4.30
2022-10-05T05:21:00.027Z,4.22
2022-10-05T05:22:03.021Z,5.05
2022-10-05T05:23:02.153Z,4.35
2022-10-05T05:23:44.554Z,4.53
2022-10-05T05:24:34.551Z,4.32
2022-10-05T05:25:35.723Z,4.80
2022-10-05T05:26:19.000Z,5.68
2022-10-05T05:27:07.197Z,4.47
2022-10-05T05:27:58.334Z,4.53
2022-10-05T05:28:53.581Z,4.00
2022-10-05T05:29:48.849Z,4.60
2022-10-05T05:30:32.631Z,4.55
2022-10-05T05:31:27.753Z,4.72
2022-10-05T05:32:02.879Z,4.80
2022-10-05T05:33:12.165Z,4.75
2022-10-05T05:33:55.704Z,4.78
2022-10-05T05:34:59.330Z,5.03
2022-10-05T05:36:00.149Z,4.80
2022-10-05T05:36:56.126Z,4.90
2022-10-05T05:37:49.780Z,6.25
2022-10-05T05:38:41.424Z,5.30
2022-10-05T05:39:37.694Z,5.90
2022-10-05T05:40:20.345Z,7.05
2022-10-05T05:41:14.048Z,5.55
2022-10-05T05:42:30.790Z,6.82
2022-10-05T05:43:18.089Z,6.70
2022-10-05T05:44:10.774Z,8.57
2022-10-05T05:44:48.316Z,9.02
2022-10-05T05:46:07.651Z,7.25
2022-10-05T05:47:02.841Z,6.18
2022-10-05T05:47:43.079Z,6.18
2022-10-05T05:48:35.466Z,6.10
2022-10-05T05:49:22.384Z,6.70
2022-10-05T05:50:19.698Z,6.25
2022-10-05T05:51:27.586Z,5.82
2022-10-05T05:52:04.950Z,6.22
2022-10-05T05:52:46.120Z,6.00
2022-10-05T05:53:28.294Z,6.20
2022-10-05T05:54:20.531Z,6.53
2022-10-05T05:55:01.009Z,6.05
2022-10-05T05:55:41.143Z,6.10
2022-10-05T05:56:45.697Z,7.95
2022-10-05T05:57:26.268Z,6.75
2022-10-05T05:58:15.027Z,6.90
2022-10-05T05:58:54.596Z,7.32
2022-10-05T05:59:30.687Z,6.10
2022-10-05T06:00:37.208Z,5.82
2022-10-05T06:01:32.141Z,7.15
2022-10-05T06:02:11.960Z,6.20
2022-10-05T06:03:06.340Z,5.85
2022-10-05T06:04:07.714Z,5.68
2022-10-05T06:05:03.453Z,5.95
2022-10-05T06:05:59.888Z,6.07
2022-10-05T06:06:36.009Z,5.90
2022-10-05T06:07:16.349Z,5.90
2022-10-05T06:07:51.330Z,6.18
2022-10-05T06:08:44.841Z,6.20
2022-10-05T06:09:30.740Z,5.93
2022-10-05T06:10:11.807Z,6.05
2022-10-05T06:10:49.187Z,6.50
2022-10-05T06:11:23.073Z,6.18
2022-10-05T06:12:07.480Z,6.40
2022-10-05T06:12:45.938Z,7.47
2022-10-05T06:13:36.171Z,8.23
2022-10-05T06:14:28.498Z,7.45
2022-10-05T06:15:19.306Z,7.68
2022-10-05T06:15:59.793Z,6.53
2022-10-05T06:17:29.051Z,6.50
2022-10-05T06:18:11.437Z,5.55
2022-10-05T06:18:48.085Z,6.28
2022-10-05T06:19:23.779Z,5.68
2022-10-05T06:20:04.720Z,6.20
2022-10-05T06:20:43.615Z,5.50
2022-10-05T06:21:43.639Z,5.95
2022-10-05T06:22:42.832Z,6.15
2022-10-05T06:23:25.567Z,6.10
2022-10-05T06:24:05.772Z,5.32
2022-10-05T06:25:05.607Z,5.57
2022-10-05T06:26:09.765Z,5.55
2022-10-05T06:27:16.456Z,5.72
2022-10-05T06:28:00.335Z,6.40
2022-10-05T06:28:32.434Z,5.70
2022-10-05T06:29:09.084Z,6.05
2022-10-05T06:29:51.416Z,5.82
2022-10-05T06:30:24.095Z,6.47
2022-10-05T06:31:21.208Z,6.12
2022-10-05T06:32:09.929Z,6.45
2022-10-05T06:33:23.695Z,6.15
2022-10-05T06:34:04.080Z,6.47
2022-10-05T06:34:52.242Z,6.25
2022-10-05T06:35:37.288Z,7.25
2022-10-05T06:36:14.931Z,6.95
2022-10-05T06:36:56.852Z,8.88
2022-10-05T06:37:50.340Z,7.53
2022-10-05T06:38:40.673Z,10.10
2022-10-05T06:40:09.292Z,8.48
2022-10-05T06:41:29.154Z,7.53
2022-10-05T06:42:25.553Z,7.12
2022-10-05T06:43:08.418Z,7.62
2022-10-05T06:43:42.035Z,7.72
2022-10-05T06:44:59.994Z,7.35
2022-10-05T06:45:40.921Z,7.12
2022-10-05T06:46:31.359Z,9.20
2022-10-05T06:47:03.293Z,6.93
2022-10-05T06:47:47.220Z,6.87
2022-10-05T06:48:45.279Z,7.40
2022-10-05T06:49:23.486Z,7.47
2022-10-05T06:50:05.593Z,7.62
2022-10-05T06:50:48.864Z,7.03
2022-10-05T06:51:47.246Z,6.95
2022-10-05T06:52:51.160Z,7.65
2022-10-05T06:53:34.195Z,6.50
2022-10-05T06:54:09.655Z,7.20
2022-10-05T06:54:56.876Z,7.12
2022-10-05T06:55:55.243Z,6.68
2022-10-05T06:56:55.909Z,6.75
2022-10-05T06:57:39.887Z,7.00
2022-10-05T06:58:36.148Z,7.40
2022-10-05T06:59:35.903Z,6.72
2022-10-05T07:00:17.580Z,6.72
2022-10-05T07:00:58.150Z,7.05
2022-10-05T07:01:30.304Z,7.53
2022-10-05T07:02:19.434Z,7.55
2022-10-05T07:03:15.412Z,6.60
2022-10-05T07:03:59.106Z,6.47
2022-10-05T07:04:45.550Z,7.25
2022-10-05T07:05:42.915Z,6.78
2022-10-05T07:06:57.827Z,6.80
2022-10-05T07:07:42.617Z,7.45
2022-10-05T07:08:29.017Z,6.87
2022-10-05T07:09:19.158Z,6.65
2022-10-05T07:10:10.353Z,6.18
2022-10-05T07:10:51.576Z,6.28
2022-10-05T07:12:12.903Z,6.00
2022-10-05T07:13:18.562Z,6.30
2022-10-05T07:13:56.010Z,6.18
2022-10-05T07:15:04.315Z,7.18
2022-10-05T07:16:01.928Z,6.07
2022-10-05T07:16:59.857Z,6.57
2022-10-05T07:17:51.985Z,6.12
2022-10-05T07:18:30.360Z,5.90
2022-10-05T07:19:13.130Z,5.65
2022-10-05T07:19:55.907Z,5.95
2022-10-05T07:21:00.105Z,6.18
2022-10-05T07:21:46.186Z,5.85
2022-10-05T07:22:37.543Z,6.00
2022-10-05T07:24:20.379Z,6.53
2022-10-05T07:25:00.530Z,6.30
2022-10-05T07:26:01.233Z,6.22
2022-10-05T07:27:09.755Z,6.60
2022-10-05T07:28:02.747Z,6.07
2022-10-05T07:28:53.819Z,6.85
2022-10-05T07:29:37.004Z,6.43
2022-10-05T07:30:14.217Z,5.90
2022-10-05T07:30:46.430Z,6.00
2022-10-05T07:31:33.558Z,6.57
2022-10-05T07:32:29.833Z,6.37
2022-10-05T07:33:13.762Z,5.82
2022-10-05T07:34:18.934Z,5.97
2022-10-05T07:34:58.688Z,5.37
2022-10-05T07:35:56.031Z,5.57
2022-10-05T07:36:55.081Z,5.20
2022-10-05T07:37:54.290Z,5.65
2022-10-05T07:38:41.154Z,4.78
2022-10-05T07:39:36.769Z,5.62
2022-10-05T07:40:32.379Z,5.50
2022-10-05T07:41:13.373Z,5.62
2022-10-05T07:41:52.567Z,5.50
2022-10-05T07:42:48.750Z,5.18
2022-10-05T07:43:40.265Z,4.85
2022-10-05T07:44:30.989Z,5.07
2022-10-05T07:45:21.166Z,6.15
2022-10-05T07:46:01.743Z,6.22
2022-10-05T07:47:04.631Z,5.85
2022-10-05T07:47:45.544Z,5.10
2022-10-05T07:48:21.696Z,5.40
2022-10-05T07:49:07.170Z,5.10
2022-10-05T07:49:54.542Z,4.95
2022-10-05T07:50:48.965Z,4.55
2022-10-05T07:51:29.853Z,5.25
2022-10-05T07:52:10.665Z,4.70
2022-10-05T07:52:56.568Z,4.35
2022-10-05T07:53:36.694Z,3.80
2022-10-05T07:54:19.170Z,3.95
2022-10-05T07:54:57.245Z,3.50
2022-10-05T07:55:41.243Z,3.62
2022-10-05T07:56:22.232Z,3.15
2022-10-05T07:57:19.145Z,3.55
2022-10-05T07:58:05.426Z,3.40
2022-10-05T07:58:44.153Z,3.25
2022-10-05T07:59:45.670Z,3.35
2022-10-05T08:00:28.979Z,3.37
2022-10-05T08:01:22.738Z,3.67
2022-10-05T08:02:05.409Z,3.35
2022-10-05T08:02:52.836Z,3.67
2022-10-05T08:03:56.924Z,3.70
2022-10-05T08:04:41.784Z,3.58
2022-10-05T08:05:27.507Z,4.05
2022-10-05T08:06:01.442Z,4.25
2022-10-05T08:06:45.845Z,4.18
2022-10-05T08:07:18.420Z,3.72
2022-10-05T08:08:13.314Z,4.10
2022-10-05T08:08:58.874Z,4.00
2022-10-05T08:09:51.393Z,3.90
2022-10-05T08:10:33.980Z,3.15
2022-10-05T08:11:28.789Z,3.85
2022-10-05T08:12:20.353Z,2.83
2022-10-05T08:13:03.061Z,3.10
2022-10-05T08:13:43.335Z,2.80
2022-10-05T08:14:57.054Z,3.55
2022-10-05T08:15:34.873Z,3.17
2022-10-05T08:16:14.564Z,3.17
2022-10-05T08:16:48.532Z,3.00
2022-10-05T08:17:38.078Z,3.05
2022-10-05T08:18:33.997Z,3.72
2022-10-05T08:19:21.340Z,3.35
2022-10-05T08:20:17.399Z,3.17
2022-10-05T08:20:57.875Z,3.05
2022-10-05T08:21:41.506Z,3.55
2022-10-05T08:22:23.523Z,3.78
2022-10-05T08:23:04.942Z,3.47
2022-10-05T08:23:48.496Z,3.60
2022-10-05T08:24:23.165Z,3.17
2022-10-05T08:25:00.317Z,3.30
2022-10-05T08:25:52.305Z,3.25
2022-10-05T08:26:55.104Z,3.05
2022-10-05T08:27:54.630Z,4.32
2022-10-05T08:28:35.441Z,3.62
2022-10-05T08:29:25.593Z,3.72
2022-10-05T08:30:04.532Z,3.62
2022-10-05T08:30:57.048Z,3.70
2022-10-05T08:31:39.569Z,4.18
2022-10-05T08:32:19.329Z,4.43
2022-10-05T08:33:01.955Z,4.18
2022-10-05T08:34:03.673Z,4.47
2022-10-05T08:35:43.890Z,3.70
2022-10-05T08:36:19.180Z,4.03
2022-10-05T08:37:18.725Z,4.07
2022-10-05T08:37:51.006Z,4.05
2022-10-05T08:38:31.685Z,4.40
2022-10-05T08:39:16.455Z,3.80
2022-10-05T08:40:31.023Z,4.10
2022-10-05T08:41:08.369Z,3.92
2022-10-05T08:41:58.153Z,3.70
2022-10-05T08:42:32.711Z,4.80
2022-10-05T08:43:10.431Z,5.55
2022-10-05T08:44:06.853Z,4.15
2022-10-05T08:44:55.093Z,4.72
2022-10-05T08:46:02.610Z,4.20
2022-10-05T08:46:52.491Z,4.55
2022-10-05T08:47:50.238Z,4.28
2022-10-05T08:49:04.655Z,4.78
2022-10-05T08:49:45.429Z,4.28
2022-10-05T08:51:06.293Z,4.85
2022-10-05T08:52:02.427Z,4.60
2022-10-05T08:53:07.335Z,4.35
2022-10-05T08:54:09.979Z,4.12
2022-10-05T08:54:50.692Z,3.97
2022-10-05T08:55:43.552Z,4.30
2022-10-05T08:56:39.460Z,4.07
2022-10-05T08:57:28.996Z,3.58
2022-10-05T08:58:12.547Z,3.35
2022-10-05T08:59:04.824Z,3.20
2022-10-05T09:00:02.840Z,4.00
2022-10-05T09:00:51.624Z,3.00
2022-10-05T09:01:55.475Z,4.00
2022-10-05T09:03:02.776Z,3.37
2022-10-05T09:03:53.554Z,3.53
2022-10-05T09:04:47.034Z,3.37
2022-10-05T09:05:46.262Z,3.30
2022-10-05T09:06:22.566Z,3.92
2022-10-05T09:07:12.329Z,3.80
2022-10-05T09:08:11.958Z,3.70
2022-10-05T09:09:06.322Z,4.00
2022-10-05T09:10:29.538Z,3.58
2022-10-05T09:11:10.240Z,4.10
2022-10-05T09:12:05.170Z,3.90
2022-10-05T09:12:45.964Z,3.90
2022-10-05T09:14:07.119Z,3.45
2022-10-05T09:15:13.671Z,3.55
2022-10-05T09:16:13.808Z,3.00
2022-10-05T09:17:18.585Z,3.47
2022-10-05T09:18:07.698Z,3.00
2022-10-05T09:19:13.477Z,3.47
2022-10-05T09:19:45.303Z,3.10
2022-10-05T09:20:30.383Z,3.00
2022-10-05T09:21:10.452Z,2.92
2022-10-05T09:22:05.030Z,3.35
2022-10-05T09:22:56.333Z,3.60
2022-10-05T09:23:42.829Z,3.17
2022-10-05T09:24:14.582Z,3.67
2022-10-05T09:25:20.966Z,3.90
2022-10-05T09:26:04.063Z,3.58
2022-10-05T09:26:58.327Z,3.45
2022-10-05T09:27:49.448Z,3.55
2022-10-05T09:28:29.131Z,3.60
2022-10-05T09:29:38.297Z,4.22
2022-10-05T09:30:29.511Z,4.35
2022-10-05T09:31:38.875Z,3.30
2022-10-05T09:32:32.216Z,4.45
2022-10-05T09:33:13.638Z,3.42
2022-10-05T09:34:06.525Z,4.15
2022-10-05T09:35:17.110Z,3.92
2022-10-05T09:36:02.084Z,4.55
2022-10-05T09:37:05.975Z,3.75
2022-10-05T09:38:01.023Z,4.00
2022-10-05T09:39:15.414Z,4.15
2022-10-05T09:40:01.105Z,4.28
2022-10-05T09:41:00.932Z,4.45
2022-10-05T09:41:58.716Z,4.43
2022-10-05T09:42:42.275Z,4.35
2022-10-05T09:43:22.953Z,3.85
2022-10-05T09:44:09.862Z,3.85
2022-10-05T09:44:41.914Z,4.05
2022-10-05T09:45:23.279Z,4.85
2022-10-05T09:46:35.430Z,3.75
2022-10-05T09:47:28.542Z,3.80
2022-10-05T09:48:27.161Z,3.33
2022-10-05T09:49:11.556Z,3.83
2022-10-05T09:50:05.035Z,4.03
2022-10-05T09:51:01.377Z,3.92
2022-10-05T09:51:36.268Z,3.78
2022-10-05T09:52:23.174Z,3.97
2022-10-05T09:53:19.985Z,4.25
2022-10-05T09:54:06.985Z,4.18
2022-10-05T09:55:02.888Z,4.28
2022-10-05T09:55:53.767Z,4.10
2022-10-05T09:56:37.011Z,4.30
2022-10-05T09:57:36.893Z,4.03
2022-10-05T09:58:48.202Z,4.20
2022-10-05T09:59:34.642Z,4.03
2022-10-05T10:00:22.100Z,3.90
2022-10-05T10:01:33.649Z,4.10
2022-10-05T10:02:21.597Z,3.85
2022-10-05T10:03:12.266Z,4.18
2022-10-05T10:04:12.274Z,3.83
2022-10-05T10:05:06.880Z,4.20
2022-10-05T10:06:00.051Z,3.97
2022-10-05T10:06:32.165Z,3.70
2022-10-05T10:07:35.453Z,4.12
2022-10-05T10:08:25.078Z,3.83
2022-10-05T10:09:18.523Z,3.60
2022-10-05T10:10:11.856Z,3.90
2022-10-05T10:11:36.099Z,3.60
2022-10-05T10:12:32.576Z,3.47
2022-10-05T10:13:39.612Z,3.75
2022-10-05T10:14:29.698Z,3.42
2022-10-05T10:15:10.207Z,3.47
2022-10-05T10:15:57.812Z,3.78
2022-10-05T10:16:44.173Z,3.42
2022-10-05T10:17:57.414Z,3.72
2022-10-05T10:19:08.549Z,3.85
2022-10-05T10:20:07.910Z,3.78
2022-10-05T10:20:57.489Z,3.58
2022-10-05T10:21:46.881Z,3.80
2022-10-05T10:22:27.810Z,3.55
2022-10-05T10:23:36.444Z,4.15
2022-10-05T10:24:22.268Z,3.95
2022-10-05T10:24:56.811Z,4.28
2022-10-05T10:26:11.923Z,4.07
2022-10-05T10:26:58.891Z,4.05
2022-10-05T10:27:39.978Z,4.53
2022-10-05T10:28:23.737Z,3.83
2022-10-05T10:29:11.786Z,3.65
2022-10-05T10:30:25.135Z,3.95
2022-10-05T10:31:45.031Z,3.65
2022-10-05T10:32:45.040Z,3.35
2022-10-05T10:33:35.466Z,3.35
2022-10-05T10:34:19.113Z,3.50
2022-10-05T10:35:12.009Z,3.55
2022-10-05T10:36:01.631Z,3.25
2022-10-05T10:36:45.463Z,3.35
2022-10-05T10:37:58.467Z,3.25
2022-10-05T10:38:40.235Z,3.50
2022-10-05T10:39:24.430Z,3.65
2022-10-05T10:40:46.587Z,3.30
2022-10-05T10:41:48.921Z,2.75
2022-10-05T10:42:39.357Z,2.80
2022-10-05T10:43:43.877Z,2.72
2022-10-05T10:44:18.823Z,2.92
2022-10-05T10:45:02.778Z,2.90
2022-10-05T10:46:02.188Z,3.10
2022-10-05T10:46:50.434Z,2.87
2022-10-05T10:47:27.054Z,2.83
2022-10-05T10:48:10.890Z,2.87
2022-10-05T10:48:48.505Z,3.08
2022-10-05T10:49:39.465Z,2.83
2022-10-05T10:50:23.009Z,2.70
2022-10-05T10:51:09.599Z,2.65
2022-10-05T10:52:03.108Z,2.70
2022-10-05T10:52:40.662Z,2.80
2022-10-05T10:53:46.854Z,2.40
2022-10-05T10:54:37.205Z,2.97